createdAt,value
2022-08-02T00:02:15.925Z,22.19
2022-08-02T00:04:38.579Z,22.16
2022-08-02T00:07:01.173Z,22.11
2022-08-02T00:09:23.907Z,22.11
2022-08-02T00:11:46.829Z,22.05
2022-08-02T00:14:09.658Z,22.09
2022-08-02T00:16:37.638Z,22.05
2022-08-02T00:19:01.230Z,21.97
2022-08-02T00:21:23.836Z,21.95
2022-08-02T00:24:27.497Z,21.91
2022-08-02T00:26:29.237Z,21.88
2022-08-02T00:28:51.828Z,21.87
2022-08-02T00:31:14.408Z,21.88
2022-08-02T00:34:26.686Z,21.84
2022-08-02T00:36:19.676Z,21.87
2022-08-02T00:38:42.945Z,21.87
2022-08-02T00:41:13.234Z,21.91
2022-08-02T00:43:35.758Z,21.95
2022-08-02T00:46:02.283Z,21.88
2022-08-02T00:48:26.069Z,21.86
2022-08-02T00:50:48.665Z,21.87
2022-08-02T00:53:11.378Z,21.76
2022-08-02T00:55:33.968Z,21.71
2022-08-02T00:57:57.006Z,21.74
2022-08-02T01:00:23.172Z,21.69
2022-08-02T01:02:52.485Z,21.51
2022-08-02T01:05:15.445Z,21.39
2022-08-02T01:07:38.332Z,21.36
2022-08-02T01:10:01.225Z,21.32
2022-08-02T01:12:23.980Z,21.23
2022-08-02T01:14:49.708Z,21.19
2022-08-02T01:17:36.347Z,21.09
2022-08-02T01:20:29.816Z,21.02
2022-08-02T01:23:29.769Z,20.92
2022-08-02T01:26:23.381Z,20.96
2022-08-02T01:29:03.826Z,21.01
2022-08-02T01:31:31.238Z,20.98
2022-08-02T01:33:57.998Z,20.95
2022-08-02T01:36:23.377Z,20.94
2022-08-02T01:38:52.381Z,20.94
2022-08-02T01:41:26.751Z,20.96
2022-08-02T01:43:53.812Z,20.88
2022-08-02T01:46:18.930Z,20.84
2022-08-02T01:48:43.995Z,20.80
2022-08-02T01:51:08.368Z,20.78
2022-08-02T01:53:32.485Z,20.70
2022-08-02T01:55:59.061Z,20.64
2022-08-02T01:58:26.301Z,20.67
2022-08-02T02:00:50.013Z,20.67
2022-08-02T02:03:25.196Z,20.64
2022-08-02T02:05:52.741Z,20.65
2022-08-02T02:08:27.282Z,20.65
2022-08-02T02:10:52.143Z,20.57
2022-08-02T02:13:18.742Z,20.56
2022-08-02T02:15:44.845Z,20.54
2022-08-02T02:18:12.270Z,20.58
2022-08-02T02:20:36.682Z,20.53
2022-08-02T02:22:59.281Z,20.48
2022-08-02T02:25:35.579Z,20.44
2022-08-02T02:28:11.105Z,20.34
2022-08-02T02:30:35.137Z,20.40
2022-08-02T02:33:01.051Z,20.27
2022-08-02T02:35:27.625Z,20.29
2022-08-02T02:37:52.912Z,20.30
2022-08-02T02:40:16.983Z,20.26
2022-08-02T02:42:41.461Z,20.27
2022-08-02T02:45:13.576Z,20.27
2022-08-02T02:47:41.433Z,20.25
2022-08-02T02:50:07.243Z,20.15
2022-08-02T02:52:31.750Z,20.12
2022-08-02T02:55:00.190Z,20.06
2022-08-02T02:57:24.024Z,20.04
2022-08-02T02:59:49.626Z,20.02
2022-08-02T03:02:13.857Z,20.05
2022-08-02T03:04:56.755Z,20.06
2022-08-02T03:07:20.537Z,20.16
2022-08-02T03:09:43.915Z,20.19
2022-08-02T03:12:07.155Z,20.27
2022-08-02T03:14:30.459Z,20.23
2022-08-02T03:16:54.575Z,20.22
2022-08-02T03:19:18.958Z,20.25
2022-08-02T03:21:46.756Z,20.16
2022-08-02T03:24:09.825Z,20.19
2022-08-02T03:26:32.469Z,20.22
2022-08-02T03:28:54.981Z,20.26
2022-08-02T03:31:17.665Z,20.19
2022-08-02T03:33:40.677Z,20.12
2022-08-02T03:36:11.206Z,20.02
2022-08-02T03:38:34.986Z,20.05
2022-08-02T03:40:58.991Z,19.99
2022-08-02T03:43:21.886Z,19.82
2022-08-02T03:45:48.139Z,19.86
2022-08-02T03:48:29.458Z,19.93
2022-08-02T03:50:56.218Z,19.88
2022-08-02T03:53:20.241Z,19.88
2022-08-02T03:55:43.309Z,19.85
2022-08-02T03:58:06.775Z,19.81
2022-08-02T04:00:30.189Z,19.85
2022-08-02T04:02:53.271Z,20.02
2022-08-02T04:05:16.819Z,20.06
2022-08-02T04:08:35.378Z,20.20
2022-08-02T04:10:22.090Z,20.32
2022-08-02T04:12:45.368Z,20.51
2022-08-02T04:15:11.011Z,20.58
2022-08-02T04:17:36.604Z,20.71
2022-08-02T04:20:22.962Z,20.83
2022-08-02T04:22:58.563Z,20.98
2022-08-02T04:25:34.428Z,21.11
2022-08-02T04:28:16.806Z,21.23
2022-08-02T04:30:41.737Z,21.33
2022-08-02T04:33:04.709Z,21.38
2022-08-02T04:35:27.354Z,21.70
2022-08-02T04:38:05.664Z,21.78
2022-08-02T04:40:32.845Z,21.88
2022-08-02T04:42:55.448Z,21.98
2022-08-02T04:45:19.607Z,22.08
2022-08-02T04:48:02.072Z,22.18
2022-08-02T04:50:25.059Z,22.28
2022-08-02T04:52:48.449Z,22.38
2022-08-02T04:55:10.993Z,22.45
2022-08-02T04:57:52.701Z,22.63
2022-08-02T05:00:16.132Z,22.74
2022-08-02T05:02:39.626Z,22.83
2022-08-02T05:05:05.817Z,23.01
2022-08-02T05:07:36.905Z,23.08
2022-08-02T05:09:59.757Z,22.97
2022-08-02T05:12:22.471Z,23.08
2022-08-02T05:14:46.156Z,23.29
2022-08-02T05:17:09.023Z,23.42
2022-08-02T05:19:32.354Z,23.55
2022-08-02T05:21:55.149Z,23.63
2022-08-02T05:24:17.748Z,23.62
2022-08-02T05:26:40.314Z,23.68
2022-08-02T05:29:04.627Z,23.89
2022-08-02T05:31:27.179Z,24.02
2022-08-02T05:33:49.870Z,24.13
2022-08-02T05:36:12.585Z,24.21
2022-08-02T05:38:36.970Z,24.21
2022-08-02T05:41:00.027Z,24.28
2022-08-02T05:43:23.421Z,24.34
2022-08-02T05:45:47.484Z,24.31
2022-08-02T05:48:10.120Z,24.31
2022-08-02T05:50:37.874Z,24.44
2022-08-02T05:53:18.339Z,24.47
2022-08-02T05:55:48.657Z,24.51
2022-08-02T05:58:20.924Z,24.67
2022-08-02T06:00:45.371Z,24.57
2022-08-02T06:03:20.739Z,24.61
2022-08-02T06:05:53.429Z,24.68
2022-08-02T06:08:48.373Z,24.73
2022-08-02T06:11:18.137Z,24.73
2022-08-02T06:13:46.003Z,24.79
2022-08-02T06:16:14.861Z,24.69
2022-08-02T06:18:41.876Z,24.50
2022-08-02T06:22:32.140Z,24.78
2022-08-02T06:23:57.987Z,25.55
2022-08-02T06:26:23.764Z,25.74
2022-08-02T06:28:46.538Z,25.64
2022-08-02T06:31:09.592Z,25.22
2022-08-02T06:33:32.579Z,25.08
2022-08-02T06:36:04.102Z,25.03
2022-08-02T06:38:32.548Z,24.83
2022-08-02T06:41:09.651Z,25.06
2022-08-02T06:44:19.924Z,25.19
2022-08-02T06:47:11.423Z,26.20
2022-08-02T06:49:51.858Z,26.49
2022-08-02T06:52:13.109Z,26.25
2022-08-02T06:54:37.736Z,26.09
2022-08-02T06:57:00.273Z,25.89
2022-08-02T06:59:22.896Z,25.88
2022-08-02T07:01:45.569Z,26.02
2022-08-02T07:04:09.408Z,26.02
2022-08-02T07:06:32.054Z,25.89
2022-08-02T07:09:18.265Z,25.96
2022-08-02T07:11:37.648Z,25.63
2022-08-02T07:14:00.207Z,25.46
2022-08-02T07:16:22.706Z,25.53
2022-08-02T07:18:45.604Z,25.68
2022-08-02T07:21:08.846Z,25.61
2022-08-02T07:23:31.914Z,25.70
2022-08-02T07:26:03.355Z,26.02
2022-08-02T07:28:27.560Z,26.16
2022-08-02T07:30:50.181Z,26.40
2022-08-02T07:33:37.681Z,26.51
2022-08-02T07:35:57.474Z,26.40
2022-08-02T07:38:23.028Z,26.51
2022-08-02T07:40:48.186Z,26.80
2022-08-02T07:43:10.846Z,27.14
2022-08-02T07:45:36.023Z,27.12
2022-08-02T07:48:08.643Z,27.22
2022-08-02T07:50:31.319Z,27.33
2022-08-02T07:52:58.091Z,27.24
2022-08-02T07:55:20.893Z,27.08
2022-08-02T07:57:46.521Z,27.24
2022-08-02T08:00:10.114Z,27.54
2022-08-02T08:02:36.237Z,27.56
2022-08-02T08:04:58.811Z,27.79
2022-08-02T08:07:21.576Z,27.69
2022-08-02T08:09:47.334Z,27.76
2022-08-02T08:12:11.191Z,28.00
2022-08-02T08:14:33.852Z,28.08
2022-08-02T08:16:56.436Z,28.04
2022-08-02T08:19:20.336Z,28.01
2022-08-02T08:22:03.316Z,28.05
2022-08-02T08:24:25.838Z,27.94
2022-08-02T08:26:48.427Z,27.98
2022-08-02T08:29:32.250Z,28.10
2022-08-02T08:31:54.894Z,28.11
2022-08-02T08:34:17.606Z,28.17
2022-08-02T08:36:41.306Z,28.24
2022-08-02T08:39:04.868Z,28.14
2022-08-02T08:41:27.851Z,27.90
2022-08-02T08:43:53.503Z,28.14
2022-08-02T08:46:34.739Z,28.34
2022-08-02T08:49:12.484Z,28.15
2022-08-02T08:51:41.575Z,28.19
2022-08-02T08:54:06.476Z,27.86
2022-08-02T08:56:33.343Z,28.05
2022-08-02T08:58:56.319Z,28.31
2022-08-02T09:01:19.445Z,28.51
2022-08-02T09:03:43.934Z,28.62
2022-08-02T09:06:06.728Z,28.75
2022-08-02T09:08:29.584Z,28.89
2022-08-02T09:10:52.795Z,28.90
2022-08-02T09:13:38.535Z,28.75
2022-08-02T09:16:11.266Z,28.73
2022-08-02T09:18:38.613Z,28.97
2022-08-02T09:21:06.431Z,28.99
2022-08-02T09:23:46.493Z,28.80
2022-08-02T09:26:20.782Z,28.89
2022-08-02T09:28:46.612Z,29.04
2022-08-02T09:31:18.350Z,29.03
2022-08-02T09:33:43.841Z,29.20
2022-08-02T09:36:08.797Z,29.15
2022-08-02T09:38:32.476Z,29.00
2022-08-02T09:40:55.616Z,28.96
2022-08-02T09:43:20.044Z,28.89
2022-08-02T09:45:42.694Z,29.06
2022-08-02T09:48:09.796Z,29.27
2022-08-02T09:50:32.493Z,29.17
2022-08-02T09:52:57.131Z,29.42
2022-08-02T09:55:20.271Z,29.61
2022-08-02T09:57:43.187Z,29.89
2022-08-02T10:00:16.185Z,29.96
2022-08-02T10:02:40.913Z,30.21
2022-08-02T10:05:06.862Z,30.27
2022-08-02T10:07:31.207Z,30.38
2022-08-02T10:09:56.285Z,30.91
2022-08-02T10:12:20.906Z,30.74
2022-08-02T10:14:43.977Z,30.64
2022-08-02T10:17:07.005Z,30.74
2022-08-02T10:20:00.120Z,30.45
2022-08-02T10:22:15.368Z,30.53
2022-08-02T10:24:47.489Z,30.78
2022-08-02T10:27:15.897Z,31.04
2022-08-02T10:29:53.559Z,30.96
2022-08-02T10:32:29.143Z,30.27
2022-08-02T10:35:25.774Z,30.82
2022-08-02T10:37:52.746Z,31.13
2022-08-02T10:40:26.348Z,31.22
2022-08-02T10:42:51.588Z,31.04
2022-08-02T10:45:17.452Z,31.08
2022-08-02T10:47:40.271Z,31.33
2022-08-02T10:50:04.711Z,31.78
2022-08-02T10:52:29.176Z,32.12
2022-08-02T10:55:02.089Z,32.05
2022-08-02T10:57:29.026Z,32.08
2022-08-02T10:59:56.587Z,31.80
2022-08-02T11:02:39.081Z,32.22
2022-08-02T11:05:07.268Z,31.37
2022-08-02T11:07:42.367Z,31.63
2022-08-02T11:10:49.567Z,31.16
2022-08-02T11:13:14.572Z,31.31
2022-08-02T11:16:01.679Z,31.73
2022-08-02T11:18:44.279Z,31.58
2022-08-02T11:21:22.417Z,31.56
2022-08-02T11:23:46.115Z,31.51
2022-08-02T11:26:30.356Z,31.41
2022-08-02T11:28:53.380Z,31.25
2022-08-02T11:31:17.003Z,31.18
2022-08-02T11:33:40.157Z,31.03
2022-08-02T11:36:07.405Z,30.98
2022-08-02T11:38:30.435Z,30.68
2022-08-02T11:40:57.358Z,30.72
2022-08-02T11:43:25.108Z,30.57
2022-08-02T11:45:49.404Z,30.17
2022-08-02T11:48:12.509Z,30.20
2022-08-02T11:50:35.077Z,30.49
2022-08-02T11:52:57.993Z,31.09
2022-08-02T11:55:31.195Z,31.27
2022-08-02T11:58:03.065Z,31.26
2022-08-02T12:00:30.614Z,30.91
2022-08-02T12:02:54.180Z,30.89
2022-08-02T12:05:20.106Z,31.33
2022-08-02T12:07:45.957Z,31.66
2022-08-02T12:10:23.230Z,31.61
2022-08-02T12:12:54.803Z,31.25
2022-08-02T12:15:41.782Z,30.95
2022-08-02T12:18:29.041Z,31.33
2022-08-02T12:20:51.809Z,30.88
2022-08-02T12:23:14.601Z,30.86
2022-08-02T12:25:37.712Z,31.25
2022-08-02T12:28:17.065Z,31.47
2022-08-02T12:30:59.922Z,31.71
2022-08-02T12:33:23.932Z,31.44
2022-08-02T12:35:46.778Z,32.19
2022-08-02T12:38:11.096Z,32.08
2022-08-02T12:40:33.966Z,31.85
2022-08-02T12:43:01.678Z,31.73
2022-08-02T12:45:25.860Z,31.26
2022-08-02T12:47:51.189Z,30.93
2022-08-02T12:50:32.570Z,30.78
2022-08-02T12:53:18.438Z,30.85
2022-08-02T12:56:01.335Z,30.85
2022-08-02T12:58:26.212Z,31.00
2022-08-02T13:00:54.777Z,31.31
2022-08-02T13:04:11.134Z,31.11
2022-08-02T13:06:11.937Z,31.39
2022-08-02T13:08:43.462Z,31.85
2022-08-02T13:11:06.379Z,31.98
2022-08-02T13:13:29.000Z,31.85
2022-08-02T13:15:53.779Z,32.28
2022-08-02T13:18:22.205Z,32.24
2022-08-02T13:20:45.529Z,31.91
2022-08-02T13:23:08.449Z,32.05
2022-08-02T13:25:44.180Z,32.08
2022-08-02T13:28:06.683Z,31.82
2022-08-02T13:30:29.540Z,31.33
2022-08-02T13:32:52.182Z,31.04
2022-08-02T13:35:17.856Z,30.95
2022-08-02T13:37:41.905Z,31.04
2022-08-02T13:40:21.080Z,30.76
2022-08-02T13:42:44.560Z,30.27
2022-08-02T13:45:12.983Z,30.28
2022-08-02T13:48:03.249Z,30.67
2022-08-02T13:50:23.719Z,30.93
2022-08-02T13:52:48.198Z,31.43
2022-08-02T13:55:14.624Z,31.68
2022-08-02T13:57:37.443Z,31.73
2022-08-02T14:00:00.431Z,31.64
2022-08-02T14:02:23.119Z,31.80
2022-08-02T14:04:46.249Z,31.88
2022-08-02T14:07:09.023Z,31.91
2022-08-02T14:09:36.055Z,31.98
2022-08-02T14:12:00.024Z,31.94
2022-08-02T14:14:22.828Z,32.02
2022-08-02T14:16:45.674Z,32.08
2022-08-02T14:19:16.793Z,32.15
2022-08-02T14:21:46.756Z,32.24
2022-08-02T14:24:10.400Z,32.08
2022-08-02T14:26:33.276Z,31.88
2022-08-02T14:28:56.104Z,31.68
2022-08-02T14:31:18.755Z,31.49
2022-08-02T14:33:41.283Z,31.06
2022-08-02T14:36:05.562Z,31.18
2022-08-02T14:38:28.344Z,31.31
2022-08-02T14:40:53.897Z,31.36
2022-08-02T14:43:36.641Z,31.09
2022-08-02T14:45:59.599Z,31.02
2022-08-02T14:48:22.622Z,31.12
2022-08-02T14:50:45.223Z,30.96
2022-08-02T14:53:12.589Z,31.03
2022-08-02T14:55:35.836Z,30.89
2022-08-02T14:57:58.419Z,30.58
2022-08-02T15:00:26.917Z,30.61
2022-08-02T15:02:51.591Z,30.74
2022-08-02T15:05:15.237Z,30.74
2022-08-02T15:07:42.548Z,30.58
2022-08-02T15:10:08.970Z,30.48
2022-08-02T15:12:31.709Z,30.33
2022-08-02T15:14:54.373Z,30.33
2022-08-02T15:17:16.973Z,30.49
2022-08-02T15:19:58.138Z,30.54
2022-08-02T15:22:23.007Z,30.65
2022-08-02T15:24:45.659Z,30.75
2022-08-02T15:27:13.022Z,30.71
2022-08-02T15:29:35.830Z,30.78
2022-08-02T15:31:58.474Z,30.84
2022-08-02T15:34:21.111Z,30.68
2022-08-02T15:36:43.795Z,30.53
2022-08-02T15:39:06.474Z,30.63
2022-08-02T15:41:29.172Z,30.37
2022-08-02T15:44:01.215Z,30.09
2022-08-02T15:46:24.277Z,29.96
2022-08-02T15:48:53.648Z,29.98
2022-08-02T15:51:16.339Z,30.13
2022-08-02T15:53:39.011Z,30.21
2022-08-02T15:56:05.501Z,30.13
2022-08-02T15:58:30.097Z,30.13
2022-08-02T16:00:52.917Z,30.05
2022-08-02T16:03:15.552Z,29.83
2022-08-02T16:05:38.331Z,29.88
2022-08-02T16:08:01.005Z,29.72
2022-08-02T16:10:24.031Z,29.55
2022-08-02T16:12:46.664Z,29.52
2022-08-02T16:15:09.670Z,29.45
2022-08-02T16:17:48.939Z,29.42
2022-08-02T16:20:15.823Z,29.61
2022-08-02T16:22:38.723Z,29.63
2022-08-02T16:25:01.332Z,29.71
2022-08-02T16:27:24.091Z,29.63
2022-08-02T16:29:48.728Z,29.54
2022-08-02T16:32:12.718Z,29.61
2022-08-02T16:35:04.101Z,29.68
2022-08-02T16:37:18.424Z,29.41
2022-08-02T16:39:44.869Z,29.42
2022-08-02T16:42:07.655Z,29.38
2022-08-02T16:44:30.506Z,29.32
2022-08-02T16:46:53.111Z,29.39
2022-08-02T16:50:04.245Z,29.34
2022-08-02T16:52:01.284Z,29.31
2022-08-02T16:54:25.176Z,29.37
2022-08-02T16:56:49.145Z,29.37
2022-08-02T16:59:13.888Z,29.23
2022-08-02T17:02:10.863Z,29.17
2022-08-02T17:04:19.809Z,29.14
2022-08-02T17:06:47.928Z,29.17
2022-08-02T17:10:03.922Z,29.21
2022-08-02T17:11:58.045Z,29.11
2022-08-02T17:14:22.909Z,29.08
2022-08-02T17:16:50.154Z,29.06
2022-08-02T17:19:14.295Z,29.02
2022-08-02T17:24:21.251Z,28.82
2022-08-02T17:26:43.849Z,28.77
2022-08-02T17:29:15.386Z,28.76
2022-08-02T17:31:43.689Z,28.60
2022-08-02T17:34:27.003Z,28.58
2022-08-02T17:36:49.984Z,28.59
2022-08-02T17:39:13.037Z,28.52
2022-08-02T17:44:36.490Z,28.41
2022-08-02T17:47:00.832Z,28.38
2022-08-02T17:49:25.759Z,28.35
2022-08-02T17:52:47.849Z,28.34
2022-08-02T17:54:31.292Z,28.25
2022-08-02T17:56:54.588Z,28.19
2022-08-02T17:59:31.122Z,28.05
2022-08-02T18:02:05.609Z,28.01
2022-08-02T18:04:29.499Z,27.94
2022-08-02T18:06:55.527Z,27.89
2022-08-02T18:09:19.579Z,27.77
2022-08-02T18:11:52.379Z,27.73
2022-08-02T18:14:17.854Z,27.50
2022-08-02T18:16:41.059Z,27.43
2022-08-02T18:19:04.537Z,27.42
2022-08-02T18:21:32.813Z,27.33
2022-08-02T18:23:58.693Z,27.28
2022-08-02T18:26:22.662Z,27.18
2022-08-02T18:28:45.726Z,27.09
2022-08-02T18:31:22.407Z,26.97
2022-08-02T18:33:57.103Z,26.90
2022-08-02T18:36:25.266Z,26.92
2022-08-02T18:38:47.961Z,26.83
2022-08-02T18:43:53.197Z,26.60
2022-08-02T18:46:17.262Z,26.53
2022-08-02T18:48:44.121Z,26.46
2022-08-02T18:51:10.133Z,26.41
2022-08-02T18:53:41.164Z,26.47
2022-08-02T18:56:05.331Z,26.39
2022-08-02T18:58:29.238Z,26.30
2022-08-02T19:00:54.192Z,26.26
2022-08-02T19:03:18.869Z,26.26
2022-08-02T19:05:51.779Z,26.20
2022-08-02T19:08:17.313Z,26.06
2022-08-02T19:10:49.203Z,25.99
2022-08-02T19:13:17.443Z,25.98
2022-08-02T19:15:41.256Z,25.94
2022-08-02T19:18:07.069Z,25.86
2022-08-02T19:20:30.241Z,25.85
2022-08-02T19:22:53.821Z,25.81
2022-08-02T19:25:17.966Z,25.77
2022-08-02T19:27:40.672Z,25.74
2022-08-02T19:30:11.005Z,25.68
2022-08-02T19:32:42.183Z,25.60
2022-08-02T19:35:29.591Z,25.57
2022-08-02T19:37:54.029Z,25.51
2022-08-02T19:40:24.182Z,25.57
2022-08-02T19:44:24.293Z,25.47
2022-08-02T19:45:49.035Z,25.48
2022-08-02T19:48:14.884Z,25.40
2022-08-02T19:50:40.061Z,25.40
2022-08-02T19:53:08.210Z,25.37
2022-08-02T19:56:00.724Z,25.24
2022-08-02T19:58:16.940Z,25.22
2022-08-02T20:00:42.396Z,25.19
2022-08-02T20:03:07.408Z,25.09
2022-08-02T20:05:38.906Z,25.05
2022-08-02T20:08:02.794Z,24.96
2022-08-02T20:10:27.792Z,24.96
2022-08-02T20:12:50.493Z,24.86
2022-08-02T20:15:14.971Z,24.81
2022-08-02T20:17:39.033Z,24.78
2022-08-02T20:20:10.976Z,24.72
2022-08-02T20:22:53.765Z,24.64
2022-08-02T20:25:16.561Z,24.61
2022-08-02T20:27:39.125Z,24.57
2022-08-02T20:30:14.535Z,24.55
2022-08-02T20:32:37.155Z,24.54
2022-08-02T20:35:00.077Z,24.48
2022-08-02T20:38:01.242Z,24.40
2022-08-02T20:40:06.777Z,24.23
2022-08-02T20:42:29.473Z,24.13
2022-08-02T20:44:55.692Z,24.12
2022-08-02T20:47:18.344Z,24.17
2022-08-02T20:50:09.796Z,24.12
2022-08-02T20:52:36.957Z,24.03
2022-08-02T20:55:00.139Z,23.90
2022-08-02T20:57:48.503Z,23.73
2022-08-02T21:00:09.063Z,23.59
2022-08-02T21:02:31.761Z,23.55
2022-08-02T21:04:54.473Z,23.48
2022-08-02T21:07:17.870Z,23.41
2022-08-02T21:09:53.780Z,23.24
2022-08-02T21:12:17.088Z,23.18
2022-08-02T21:14:40.251Z,23.15
2022-08-02T21:17:04.111Z,23.14
2022-08-02T21:19:26.815Z,23.11
2022-08-02T21:21:49.521Z,23.01
2022-08-02T21:24:12.449Z,22.94
2022-08-02T21:26:35.083Z,22.91
2022-08-02T21:29:03.149Z,22.90
2022-08-02T21:31:30.162Z,22.49
2022-08-02T21:34:22.539Z,22.49
2022-08-02T21:36:50.722Z,22.48
2022-08-02T21:39:13.524Z,22.46
2022-08-02T21:44:22.302Z,22.46
2022-08-02T21:46:49.335Z,22.43
2022-08-02T21:49:14.173Z,22.48
2022-08-02T21:51:36.952Z,22.41
2022-08-02T21:54:17.984Z,22.38
2022-08-02T21:56:42.242Z,22.41
2022-08-02T21:59:16.217Z,22.42
2022-08-02T22:01:39.270Z,22.48
2022-08-02T22:04:16.304Z,22.48
2022-08-02T22:06:39.150Z,22.55
2022-08-02T22:09:02.240Z,22.51
2022-08-02T22:11:24.807Z,22.49
2022-08-02T22:13:48.503Z,22.48
2022-08-02T22:16:12.767Z,22.46
2022-08-02T22:18:51.437Z,22.53
2022-08-02T22:21:18.575Z,22.59
2022-08-02T22:23:50.263Z,22.57
2022-08-02T22:26:14.028Z,22.56
2022-08-02T22:28:52.889Z,22.66
2022-08-02T22:31:17.642Z,22.67
2022-08-02T22:34:04.365Z,22.69
2022-08-02T22:36:28.228Z,22.72
2022-08-02T22:38:51.346Z,22.70
2022-08-02T22:41:15.091Z,22.69
2022-08-02T22:43:37.661Z,22.66
2022-08-02T22:46:00.991Z,22.72
2022-08-02T22:48:24.883Z,22.64
2022-08-02T22:50:47.599Z,22.64
2022-08-02T22:53:10.187Z,22.66
2022-08-02T22:55:32.857Z,22.67
2022-08-02T22:57:56.539Z,22.56
2022-08-02T22:58:50.792Z,28.42
2022-08-02T22:58:57.317Z,26.74
2022-08-02T23:00:20.199Z,22.49
2022-08-02T23:02:42.870Z,22.49
2022-08-02T23:05:08.412Z,22.36
2022-08-02T23:07:36.369Z,22.31
2022-08-02T23:10:05.998Z,22.14
2022-08-02T23:12:28.788Z,21.95
2022-08-02T23:14:51.867Z,21.64
2022-08-02T23:17:32.934Z,21.63
2022-08-02T23:19:56.556Z,21.46
2022-08-02T23:22:29.950Z,21.42
2022-08-02T23:24:55.536Z,21.29
2022-08-02T23:27:18.753Z,21.25
2022-08-02T23:29:42.033Z,21.22
2022-08-02T23:32:04.852Z,21.19
2022-08-02T23:34:29.052Z,21.22
2022-08-02T23:36:51.560Z,21.13
2022-08-02T23:39:14.442Z,21.11
2022-08-02T23:41:36.948Z,21.15
2022-08-02T23:44:13.106Z,21.13
2022-08-02T23:46:43.605Z,21.15
2022-08-02T23:49:07.274Z,21.15
2022-08-02T23:51:29.895Z,21.18
2022-08-02T23:53:52.521Z,21.12
2022-08-02T23:56:15.093Z,21.13
2022-08-02T23:58:37.937Z,21.11
